createdAt,value
2023-02-11T00:04:19.421Z,47.86
2023-02-11T00:09:22.878Z,46.55
2023-02-11T00:14:27.741Z,47.41
2023-02-11T00:19:31.139Z,46.09
2023-02-11T00:24:34.610Z,46.08
2023-02-11T00:29:39.877Z,46.12
2023-02-11T00:34:43.333Z,47.11
2023-02-11T00:39:47.098Z,47.63
2023-02-11T00:44:51.888Z,47.37
2023-02-11T00:49:55.336Z,48.65
2023-02-11T00:54:59.096Z,48.38
2023-02-11T01:00:04.082Z,48.18
2023-02-11T01:05:08.265Z,48.49
2023-02-11T01:10:11.972Z,48.50
2023-02-11T01:15:19.048Z,48.30
2023-02-11T01:20:24.886Z,49.64
2023-02-11T01:25:28.425Z,49.93
2023-02-11T01:30:33.232Z,48.70
2023-02-11T01:35:36.650Z,49.91
2023-02-11T01:40:40.075Z,53.12
2023-02-11T01:46:28.987Z,54.09
2023-02-11T01:51:36.176Z,52.97
2023-02-11T01:57:01.271Z,53.61
2023-02-11T02:02:08.176Z,54.14
2023-02-11T02:07:19.096Z,53.11
2023-02-11T02:12:22.472Z,54.89
2023-02-11T02:17:32.056Z,53.62
2023-02-11T02:23:24.891Z,52.75
2023-02-11T02:28:47.173Z,52.91
2023-02-11T02:33:55.754Z,53.31
2023-02-11T02:39:02.684Z,52.13
2023-02-11T02:44:07.366Z,54.32
2023-02-11T02:49:14.447Z,52.54
2023-02-11T02:54:36.869Z,53.83
2023-02-11T02:59:50.047Z,51.69
2023-02-11T03:04:59.049Z,53.74
2023-02-11T03:10:06.409Z,54.02
2023-02-11T03:15:10.672Z,51.99
2023-02-11T03:20:18.723Z,50.83
2023-02-11T03:25:23.907Z,52.42
2023-02-11T03:30:31.341Z,54.13
2023-02-11T03:35:41.895Z,54.07
2023-02-11T03:40:46.443Z,51.78
2023-02-11T03:45:52.483Z,53.48
2023-02-11T03:50:59.406Z,51.37
2023-02-11T03:56:06.721Z,52.21
2023-02-11T04:01:10.412Z,53.70
2023-02-11T04:06:15.175Z,51.47
2023-02-11T04:11:18.512Z,52.09
2023-02-11T04:16:22.062Z,52.18
2023-02-11T04:21:26.792Z,53.64
2023-02-11T04:26:30.135Z,52.83
2023-02-11T04:31:33.555Z,52.67
2023-02-11T04:36:38.361Z,52.72
2023-02-11T04:41:41.721Z,52.47
2023-02-11T04:46:45.179Z,53.61
2023-02-11T04:51:51.178Z,53.73
2023-02-11T04:56:54.550Z,51.99
2023-02-11T05:01:58.043Z,51.55
2023-02-11T05:07:02.810Z,52.17
2023-02-11T05:12:06.453Z,51.69
2023-02-11T05:17:09.900Z,50.41
2023-02-11T05:22:14.587Z,50.79
2023-02-11T05:27:17.942Z,52.05
2023-02-11T05:32:21.365Z,52.15
2023-02-11T05:37:26.121Z,51.63
2023-02-11T05:42:29.507Z,53.21
2023-02-11T05:47:32.970Z,52.62
2023-02-11T05:52:37.744Z,51.30
2023-02-11T05:57:41.312Z,52.10
2023-02-11T06:02:44.894Z,51.69
2023-02-11T06:07:49.643Z,51.30
2023-02-11T06:12:52.969Z,52.53
2023-02-11T06:17:56.745Z,51.90
2023-02-11T06:23:01.461Z,52.18
2023-02-11T06:28:05.090Z,50.70
2023-02-11T06:33:08.543Z,50.48
2023-02-11T06:38:13.269Z,51.46
2023-02-11T06:43:16.730Z,51.78
2023-02-11T06:48:20.174Z,51.80
2023-02-11T06:53:25.222Z,50.57
2023-02-11T06:58:28.656Z,51.42
2023-02-11T07:03:32.140Z,52.04
2023-02-11T07:08:38.346Z,51.78
2023-02-11T07:13:41.746Z,50.91
2023-02-11T07:18:45.794Z,50.45
2023-02-11T07:23:50.623Z,50.52
2023-02-11T07:28:54.287Z,52.33
2023-02-11T07:33:59.808Z,51.37
2023-02-11T07:39:05.014Z,50.84
2023-02-11T07:44:08.475Z,52.67
2023-02-11T07:49:12.149Z,50.28
2023-02-11T07:54:16.835Z,50.78
2023-02-11T07:59:20.183Z,50.77
2023-02-11T08:04:23.780Z,51.60
2023-02-11T08:09:28.606Z,52.52
2023-02-11T08:14:32.696Z,52.96
2023-02-11T08:19:36.189Z,51.83
2023-02-11T08:24:40.971Z,51.33
2023-02-11T08:29:44.335Z,52.33
2023-02-11T08:34:47.742Z,53.58
2023-02-11T08:39:52.515Z,52.13
2023-02-11T08:44:55.936Z,51.14
2023-02-11T08:49:59.329Z,50.05
2023-02-11T08:55:04.654Z,50.74
2023-02-11T09:00:11.056Z,51.21
2023-02-11T09:05:14.600Z,49.49
2023-02-11T09:10:19.641Z,51.00
2023-02-11T09:15:23.040Z,50.08
2023-02-11T09:20:27.395Z,50.75
2023-02-11T09:25:32.092Z,51.61
2023-02-11T09:30:36.802Z,50.26
2023-02-11T09:35:40.365Z,51.11
2023-02-11T09:40:46.165Z,50.23
2023-02-11T09:45:49.971Z,50.19
2023-02-11T09:50:56.086Z,48.87
2023-02-11T09:56:04.461Z,50.40
2023-02-11T10:01:13.897Z,51.63
2023-02-11T10:06:31.359Z,49.34
2023-02-11T10:11:43.152Z,51.83
2023-02-11T10:16:54.528Z,50.26
2023-02-11T10:22:03.232Z,50.20
2023-02-11T10:27:15.931Z,49.97
2023-02-11T10:32:30.011Z,49.97
2023-02-11T10:37:33.524Z,49.71
2023-02-11T10:42:38.429Z,50.85
2023-02-11T10:47:42.298Z,50.95
2023-02-11T10:52:45.744Z,51.98
2023-02-11T10:57:57.541Z,50.58
2023-02-11T11:03:01.998Z,49.74
2023-02-11T11:08:07.092Z,50.38
2023-02-11T11:13:27.651Z,51.39
2023-02-11T11:18:31.228Z,53.40
2023-02-11T11:23:36.891Z,51.25
2023-02-11T11:28:44.275Z,52.93
2023-02-11T11:33:48.577Z,51.53
2023-02-11T11:38:56.552Z,52.28
2023-02-11T11:44:04.375Z,51.14
2023-02-11T11:49:14.872Z,51.53
2023-02-11T11:54:19.982Z,52.03
2023-02-11T11:59:24.774Z,51.93
2023-02-11T12:04:42.796Z,51.96
2023-02-11T12:10:05.610Z,52.71
2023-02-11T12:15:22.264Z,54.00
2023-02-11T12:20:33.861Z,52.22
2023-02-11T12:25:41.471Z,53.57
2023-02-11T12:31:12.923Z,52.46
2023-02-11T12:36:22.328Z,51.33
2023-02-11T12:41:52.096Z,52.70
2023-02-11T12:46:59.410Z,52.69
2023-02-11T12:52:13.433Z,51.11
2023-02-11T12:57:19.652Z,52.02
2023-02-11T13:02:30.528Z,51.57
2023-02-11T13:07:38.110Z,52.03
2023-02-11T13:13:02.765Z,52.62
2023-02-11T13:18:19.087Z,51.76
2023-02-11T13:23:28.117Z,52.94
2023-02-11T13:28:42.570Z,52.48
2023-02-11T13:33:49.758Z,51.66
2023-02-11T13:39:04.621Z,53.49
2023-02-11T13:44:22.442Z,53.16
2023-02-11T13:49:32.078Z,51.63
2023-02-11T13:54:37.100Z,52.55
2023-02-11T13:59:48.402Z,51.66
2023-02-11T14:05:40.020Z,52.13
2023-02-11T14:10:51.764Z,52.34
2023-02-11T14:16:09.291Z,53.04
2023-02-11T14:21:16.951Z,52.26
2023-02-11T14:26:32.324Z,52.94
2023-02-11T14:31:39.986Z,51.71
2023-02-11T14:36:55.779Z,52.05
2023-02-11T14:42:01.794Z,52.55
2023-02-11T14:47:05.252Z,53.64
2023-02-11T14:52:26.860Z,52.01
2023-02-11T14:57:30.673Z,52.68
2023-02-11T15:02:36.853Z,52.41
2023-02-11T15:07:46.712Z,52.40
2023-02-11T15:12:50.479Z,53.07
2023-02-11T15:17:54.179Z,53.35
2023-02-11T15:23:01.242Z,51.73
2023-02-11T15:28:17.015Z,53.92
2023-02-11T15:33:25.241Z,53.97
2023-02-11T15:38:30.777Z,53.77
2023-02-11T15:43:44.825Z,52.99
2023-02-11T15:48:50.208Z,55.53
2023-02-11T15:53:58.441Z,52.81
2023-02-11T15:59:11.890Z,52.42
2023-02-11T16:04:18.101Z,52.07
2023-02-11T16:09:32.793Z,52.75
2023-02-11T16:14:39.116Z,54.23
2023-02-11T16:19:44.922Z,52.67
2023-02-11T16:24:50.987Z,53.40
2023-02-11T16:29:54.375Z,52.88
2023-02-11T16:34:59.283Z,51.58
2023-02-11T16:40:04.001Z,52.65
2023-02-11T16:45:07.869Z,52.01
2023-02-11T16:50:12.897Z,51.70
2023-02-11T16:55:17.881Z,51.91
2023-02-11T17:00:22.625Z,51.99
2023-02-11T17:05:26.866Z,51.77
2023-02-11T17:10:32.397Z,52.31
2023-02-11T17:15:35.962Z,52.26
2023-02-11T17:20:39.464Z,50.56
2023-02-11T17:25:44.317Z,52.32
2023-02-11T17:30:47.729Z,51.54
2023-02-11T17:35:51.645Z,51.78
2023-02-11T17:41:00.252Z,49.45
2023-02-11T17:46:07.228Z,49.94
2023-02-11T17:51:22.403Z,52.47
2023-02-11T17:56:27.288Z,54.75
2023-02-11T18:01:31.577Z,51.32
2023-02-11T18:06:35.496Z,49.99
2023-02-11T18:11:41.518Z,51.75
2023-02-11T18:16:45.834Z,51.02
2023-02-11T18:21:50.882Z,51.34
2023-02-11T18:26:55.671Z,51.05
2023-02-11T18:31:59.478Z,51.67
2023-02-11T18:37:02.920Z,53.36
2023-02-11T18:42:07.788Z,51.63
2023-02-11T18:47:11.196Z,52.10
2023-02-11T18:52:14.623Z,50.10
2023-02-11T18:57:19.384Z,51.00
2023-02-11T19:02:24.740Z,51.98
2023-02-11T19:07:28.172Z,50.61
2023-02-11T19:12:33.129Z,50.80
2023-02-11T19:17:36.580Z,50.82
2023-02-11T19:22:40.013Z,49.80
2023-02-11T19:27:44.849Z,50.48
2023-02-11T19:32:52.334Z,52.76
2023-02-11T19:37:55.732Z,53.19
2023-02-11T19:43:00.507Z,53.10
2023-02-11T19:48:03.922Z,52.39
2023-02-11T19:53:07.382Z,50.05
2023-02-11T19:58:12.146Z,51.52
2023-02-11T20:03:15.526Z,53.41
2023-02-11T20:08:18.879Z,50.78
2023-02-11T20:13:23.608Z,53.53
2023-02-11T20:18:27.093Z,52.79
2023-02-11T20:23:30.557Z,53.02
2023-02-11T20:28:35.506Z,53.23
2023-02-11T20:33:39.831Z,54.63
2023-02-11T20:38:43.796Z,54.33
2023-02-11T20:43:51.799Z,52.53
2023-02-11T20:48:56.212Z,52.95
2023-02-11T20:54:00.791Z,54.73
2023-02-11T20:59:06.301Z,55.71
2023-02-11T21:04:12.736Z,54.67
2023-02-11T21:09:17.579Z,53.40
2023-02-11T21:14:23.915Z,53.15
2023-02-11T21:19:27.627Z,55.23
2023-02-11T21:24:31.719Z,55.40
2023-02-11T21:29:45.754Z,54.40
2023-02-11T21:34:56.410Z,54.59
2023-02-11T21:39:59.768Z,56.79
2023-02-11T21:45:04.827Z,53.83
2023-02-11T21:50:08.855Z,53.56
2023-02-11T21:55:12.582Z,52.65
2023-02-11T22:00:20.237Z,53.32
2023-02-11T22:05:24.032Z,54.43
2023-02-11T22:10:27.399Z,55.10
2023-02-11T22:15:32.165Z,53.92
2023-02-11T22:20:35.548Z,53.37
2023-02-11T22:25:38.926Z,55.75
2023-02-11T22:30:43.726Z,54.25
2023-02-11T22:35:47.145Z,56.82
2023-02-11T22:40:50.670Z,54.15
2023-02-11T22:45:56.559Z,53.03
2023-02-11T22:51:05.137Z,54.74
2023-02-11T22:56:15.051Z,55.20
2023-02-11T23:01:20.916Z,53.89
2023-02-11T23:06:24.434Z,54.00
2023-02-11T23:11:30.259Z,53.79
2023-02-11T23:16:35.757Z,55.09
2023-02-11T23:21:40.499Z,56.14
2023-02-11T23:26:45.206Z,55.45
2023-02-11T23:31:50.656Z,53.78
2023-02-11T23:36:54.207Z,58.66
2023-02-11T23:41:59.484Z,53.46
2023-02-11T23:47:04.405Z,53.66
2023-02-11T23:52:07.894Z,54.28
2023-02-11T23:57:12.343Z,53.21
